Time;durP1;ratioP1;P1;durP2;ratioP2;P2;SDS_P1;SDS_P2;PMS_P1;PMS_P2;Temp;Humidity;BMP_temperature;BMP_pressure;BME280_temperature;BME280_humidity;BME280_pressure;Samples;Min_cycle;Max_cycle;Signal;HPM_P1;HPM_P2
2021/07/16 10:21:12;;;;;;;609.38;572.92;;;19.80;99.90;;;;;;5070763;28;20596;-72
2021/07/16 10:23:39;;;;;;;644.78;604.90;;;16.70;99.90;;;;;;5070698;28;20582;-72
2021/07/16 10:26:09;;;;;;;607.17;569.67;;;16.80;99.90;;;;;;5070658;28;20255;-72
2021/07/16 10:28:43;;;;;;;611.72;574.22;;;16.80;99.90;;;;;;5069345;28;20656;-72
2021/07/16 10:31:28;;;;;;;546.95;515.08;;;16.90;99.90;;;;;;5070574;28;20222;-72
2021/07/16 10:33:57;;;;;;;455.38;429.63;;;17.10;99.90;;;;;;5070500;28;20179;-72
2021/07/16 10:36:38;;;;;;;457.98;433.33;;;17.30;99.90;;;;;;5070510;28;20178;-73
2021/07/16 10:39:10;;;;;;;409.42;387.48;;;17.70;99.90;;;;;;5070305;28;20200;-73
2021/07/16 10:41:38;;;;;;;379.13;359.08;;;17.90;99.90;;;;;;5070292;28;20188;-72
2021/07/16 10:44:08;;;;;;;433.50;411.05;;;18.10;99.90;;;;;;5070264;28;20197;-72
2021/07/16 10:46:36;;;;;;;243.52;230.38;;;18.20;99.90;;;;;;5070303;28;20610;-72
2021/07/16 10:49:04;;;;;;;223.35;211.30;;;18.10;99.90;;;;;;5068910;28;20194;-73
2021/07/16 10:51:31;;;;;;;224.07;212.32;;;18.00;99.90;;;;;;5070097;28;20168;-72
2021/07/16 10:53:59;;;;;;;271.90;258.02;;;18.00;99.90;;;;;;5070031;28;20656;-72
2021/07/16 10:56:46;;;;;;;331.80;314.63;;;18.00;99.90;;;;;;5070025;28;20172;-73
2021/07/16 10:59:43;;;;;;;304.00;286.67;;;18.00;99.90;;;;;;5069713;28;20192;-72
2021/07/16 11:02:46;;;;;;;260.25;246.90;;;18.10;99.90;;;;;;5069884;28;20574;-72
2021/07/16 11:05:32;;;;;;;292.85;277.95;;;18.20;99.90;;;;;;5027906;28;20646;-72
2021/07/16 11:07:59;;;;;;;368.00;348.58;;;18.30;99.90;;;;;;5067597;28;20245;-71
2021/07/16 11:10:55;;;;;;;475.60;450.02;;;18.30;99.90;;;;;;5069767;28;20191;-70
2021/07/16 11:13:44;;;;;;;428.00;405.55;;;18.10;99.90;;;;;;5069674;28;20165;-70
2021/07/16 11:16:16;;;;;;;391.85;372.20;;;17.90;99.90;;;;;;5069532;28;20643;-70
2021/07/16 11:19:09;;;;;;;449.42;425.95;;;18.00;99.90;;;;;;5069499;28;20230;-70
2021/07/16 11:21:47;;;;;;;492.13;465.92;;;18.10;99.90;;;;;;5069460;28;20640;-71
2021/07/16 11:24:18;;;;;;;479.55;453.35;;;18.20;99.90;;;;;;5069407;28;20256;-70
2021/07/16 11:26:49;;;;;;;525.45;497.13;;;18.40;99.90;;;;;;5069234;28;20164;-71
2021/07/16 11:29:15;;;;;;;449.83;426.45;;;18.70;99.90;;;;;;5069158;28;20588;-70
2021/07/16 11:31:41;;;;;;;547.22;516.75;;;18.90;99.90;;;;;;5061005;28;20526;-70
2021/07/16 11:34:10;;;;;;;568.95;537.35;;;19.00;99.90;;;;;;5056037;28;20227;-70
2021/07/16 11:36:36;;;;;;;486.13;460.77;;;19.00;99.90;;;;;;5056031;28;20214;-70
2021/07/16 11:39:02;;;;;;;487.45;461.65;;;19.00;99.90;;;;;;5055851;28;20256;-70
2021/07/16 11:41:29;;;;;;;463.17;439.13;;;19.00;99.90;;;;;;5055906;28;20165;-70
2021/07/16 11:43:55;;;;;;;448.33;424.95;;;19.00;99.90;;;;;;5055812;28;20195;-71
2021/07/16 11:46:31;;;;;;;634.75;598.35;;;19.10;99.90;;;;;;5055862;28;20623;-71
2021/07/16 11:48:58;;;;;;;627.47;591.55;;;19.10;99.90;;;;;;5054532;28;20588;-71
2021/07/16 11:51:30;;;;;;;618.90;583.25;;;19.10;99.90;;;;;;5055768;28;20165;-70
2021/07/16 11:54:16;;;;;;;698.15;655.97;;;19.00;99.90;;;;;;5055584;28;20164;-70
2021/07/16 11:56:42;;;;;;;708.78;666.28;;;18.90;99.90;;;;;;5055471;28;20648;-70
2021/07/16 11:59:23;;;;;;;793.00;745.38;;;18.80;99.90;;;;;;5055532;28;20200;-71
2021/07/16 12:02:11;;;;;;;770.17;723.70;;;18.80;99.90;;;;;;5055619;28;20520;-71
2021/07/16 12:04:39;;;;;;;685.63;645.47;;;18.80;99.90;;;;;;5055488;28;20248;-70
2021/07/16 12:07:05;;;;;;;806.78;757.42;;;18.80;99.90;;;;;;5055430;28;20661;-70
2021/07/16 12:09:36;;;;;;;834.67;784.28;;;18.80;99.90;;;;;;5055367;28;20187;-70
2021/07/16 12:12:13;;;;;;;856.55;803.90;;;18.80;99.90;;;;;;5055352;28;20176;-70
2021/07/16 12:14:47;;;;;;;787.97;741.38;;;18.70;99.90;;;;;;5055175;28;20229;-71
2021/07/16 12:17:14;;;;;;;837.92;786.70;;;18.70;99.90;;;;;;5055299;28;20247;-70
2021/07/16 12:19:40;;;;;;;853.60;801.25;;;18.60;99.90;;;;;;5055038;28;20216;-71
2021/07/16 12:22:06;;;;;;;816.83;767.17;;;18.50;99.90;;;;;;5055308;28;20169;-71
2021/07/16 12:24:33;;;;;;;868.65;814.75;;;18.50;99.90;;;;;;5055107;28;20168;-71
2021/07/16 12:27:06;;;;;;;903.95;847.47;;;18.60;99.90;;;;;;5055057;28;20169;-70
2021/07/16 12:29:32;;;;;;;896.88;840.42;;;18.60;99.90;;;;;;5054996;28;20637;-70
2021/07/16 12:31:57;;;;;;;935.65;875.55;;;18.60;99.90;;;;;;5055033;28;20244;-70
2021/07/16 12:34:25;;;;;;;863.03;809.13;;;18.60;99.90;;;;;;5053651;28;20334;-70
2021/07/16 12:37:05;;;;;;;918.25;859.50;;;18.50;99.90;;;;;;5054877;28;20172;-71
2021/07/16 12:39:30;;;;;;;887.38;830.92;;;18.50;99.90;;;;;;5053446;28;20597;-71
2021/07/16 12:42:18;;;;;;;911.60;851.65;;;18.50;99.90;;;;;;5054663;28;20247;-70
2021/07/16 12:45:16;;;;;;;856.75;802.05;;;18.50;99.90;;;;;;5054306;28;20626;-70
2021/07/16 12:47:51;;;;;;;778.63;729.60;;;18.50;99.90;;;;;;5042736;28;20181;-70
2021/07/16 12:50:20;;;;;;;790.55;742.47;;;18.50;99.90;;;;;;5054636;28;20254;-70
2021/07/16 12:52:54;;;;;;;863.55;809.55;;;18.60;99.90;;;;;;5053330;28;20584;-70
2021/07/16 12:55:21;;;;;;;911.42;852.70;;;18.70;99.90;;;;;;5054573;28;20172;-70
2021/07/16 12:57:46;;;;;;;835.20;784.38;;;18.60;99.90;;;;;;5054456;28;20187;-70
2021/07/16 13:00:19;;;;;;;977.92;911.20;;;18.70;99.90;;;;;;5054470;28;20201;-70
2021/07/16 13:02:47;;;;;;;965.33;899.90;;;18.70;99.90;;;;;;5054346;28;20193;-70
2021/07/16 13:05:26;;;;;;;887.40;830.65;;;18.70;99.90;;;;;;5053066;28;20258;-71
2021/07/16 13:08:12;;;;;;;909.25;850.47;;;18.70;99.90;;;;;;5054304;28;20189;-70
2021/07/16 13:10:55;;;;;;;867.95;813.20;;;18.70;99.90;;;;;;5054231;28;20631;-70
2021/07/16 13:13:32;;;;;;;863.47;808.83;;;18.70;99.90;;;;;;5054161;28;20626;-70
2021/07/16 13:16:19;;;;;;;927.67;866.35;;;18.60;99.90;;;;;;5054039;28;20192;-70
2021/07/16 13:18:57;;;;;;;887.35;829.63;;;18.50;99.90;;;;;;5052654;28;20181;-70
2021/07/16 13:21:22;;;;;;;864.03;808.65;;;18.40;99.90;;;;;;5052799;28;20177;-70
2021/07/16 13:23:48;;;;;;;939.00;876.05;;;18.40;99.90;;;;;;5053945;28;20165;-70
2021/07/16 13:26:15;;;;;;;922.58;860.97;;;18.30;99.90;;;;;;5053970;28;20255;-70
2021/07/16 13:28:44;;;;;;;894.28;835.90;;;18.20;99.90;;;;;;5053932;28;20509;-72
2021/07/16 13:31:11;;;;;;;911.22;851.28;;;18.20;99.90;;;;;;5053890;28;20170;-72
2021/07/16 13:33:36;;;;;;;889.22;831.30;;;18.20;99.90;;;;;;5053766;28;20256;-72
2021/07/16 13:36:06;;;;;;;885.40;827.40;;;18.20;99.90;;;;;;5053722;28;20271;-72
2021/07/16 13:38:32;;;;;;;908.28;848.40;;;18.20;99.90;;;;;;5053755;28;20165;-72
2021/07/16 13:41:00;;;;;;;904.95;845.60;;;18.20;99.90;;;;;;5052422;28;20669;-72
2021/07/16 13:43:27;;;;;;;888.17;830.35;;;18.30;99.90;;;;;;5053654;28;20505;-72
2021/07/16 13:45:53;;;;;;;921.17;860.15;;;18.30;99.90;;;;;;5052516;28;20188;-72
2021/07/16 13:48:19;;;;;;;901.85;842.85;;;18.30;99.90;;;;;;5053522;28;20664;-72
2021/07/16 13:50:44;;;;;;;896.72;838.00;;;18.20;99.90;;;;;;5053489;28;20227;-72
2021/07/16 13:53:10;;;;;;;891.08;832.97;;;18.20;99.90;;;;;;5053539;28;20549;-72
2021/07/16 13:55:36;;;;;;;904.03;844.67;;;18.20;99.90;;;;;;5051981;28;20634;-72
2021/07/16 13:58:02;;;;;;;856.33;800.50;;;18.20;99.90;;;;;;5053465;28;20173;-72
2021/07/16 14:00:27;;;;;;;869.15;813.20;;;18.20;99.90;;;;;;5053316;28;20291;-72
2021/07/16 14:02:53;;;;;;;877.00;820.53;;;18.30;99.90;;;;;;5053298;28;20575;-72
2021/07/16 14:05:19;;;;;;;906.15;846.97;;;18.40;99.90;;;;;;5053360;28;20557;-72
2021/07/16 14:07:46;;;;;;;858.53;804.30;;;18.40;99.90;;;;;;5053336;28;20203;-72
2021/07/16 14:10:13;;;;;;;905.67;847.20;;;18.40;99.90;;;;;;5052226;28;20537;-72
2021/07/16 14:12:39;;;;;;;926.88;866.03;;;18.50;99.90;;;;;;5053239;28;20177;-72
2021/07/16 14:15:07;;;;;;;898.30;839.25;;;18.40;99.90;;;;;;5053178;28;20224;-73
2021/07/16 14:17:33;;;;;;;871.88;815.72;;;18.30;99.90;;;;;;5051821;28;20172;-72
2021/07/16 14:19:58;;;;;;;900.47;841.97;;;18.30;99.90;;;;;;5053000;28;20700;-72
2021/07/16 14:22:25;;;;;;;915.80;856.25;;;18.30;99.90;;;;;;5053197;28;20177;-72
2021/07/16 14:24:50;;;;;;;938.65;876.03;;;18.30;99.90;;;;;;5053128;28;20588;-72
2021/07/16 14:27:16;;;;;;;900.90;841.90;;;18.30;99.90;;;;;;5053145;28;20244;-72
2021/07/16 14:29:42;;;;;;;869.78;814.00;;;18.20;99.90;;;;;;5052560;28;20255;-72
2021/07/16 14:32:08;;;;;;;846.78;793.85;;;18.30;99.90;;;;;;5052845;28;20204;-72
2021/07/16 14:34:34;;;;;;;868.05;812.92;;;18.50;99.90;;;;;;5053006;28;20169;-72
2021/07/16 14:36:59;;;;;;;866.83;812.97;;;18.70;99.90;;;;;;5053022;28;20177;-72
2021/07/16 14:39:25;;;;;;;873.17;818.78;;;18.80;99.90;;;;;;5052921;28;20196;-72
2021/07/16 14:41:51;;;;;;;884.75;828.80;;;18.80;99.90;;;;;;5051768;28;20625;-72
2021/07/16 14:44:17;;;;;;;829.30;778.70;;;18.80;99.90;;;;;;5053018;28;20693;-72
2021/07/16 14:46:43;;;;;;;848.42;797.08;;;18.80;99.90;;;;;;5052898;28;20523;-72
2021/07/16 14:49:08;;;;;;;878.78;824.17;;;18.80;99.90;;;;;;5052971;28;20518;-72
2021/07/16 14:51:35;;;;;;;919.90;861.28;;;18.70;99.90;;;;;;5051625;28;20180;-72
2021/07/16 14:54:02;;;;;;;963.30;900.67;;;18.70;99.90;;;;;;5051700;28;20528;-70
2021/07/16 14:56:28;;;;;;;946.53;883.53;;;18.60;99.90;;;;;;5052810;28;20161;-70
2021/07/16 14:58:54;;;;;;;939.17;876.40;;;18.50;99.90;;;;;;5052739;28;20184;-70
2021/07/16 15:01:20;;;;;;;882.25;825.67;;;18.40;99.90;;;;;;5052788;28;20161;-70
2021/07/16 15:03:46;;;;;;;926.88;865.88;;;18.40;99.90;;;;;;5052813;28;20524;-72
2021/07/16 15:06:11;;;;;;;920.33;860.22;;;18.30;99.90;;;;;;5052293;28;20181;-73
2021/07/16 15:08:37;;;;;;;922.47;862.53;;;18.30;99.90;;;;;;5055319;28;20165;-70
2021/07/16 15:11:03;;;;;;;885.03;826.88;;;18.30;99.90;;;;;;5056388;28;20175;-70
2021/07/16 15:13:29;;;;;;;884.05;827.92;;;18.30;99.90;;;;;;5056408;28;20169;-70
2021/07/16 15:15:54;;;;;;;870.72;815.45;;;18.40;99.90;;;;;;5056286;28;20254;-70
2021/07/16 15:18:21;;;;;;;837.42;784.40;;;18.50;99.90;;;;;;5056340;28;20173;-70
2021/07/16 15:20:48;;;;;;;837.00;784.03;;;18.60;99.90;;;;;;5056114;28;20713;-70
2021/07/16 15:23:15;;;;;;;741.15;697.35;;;18.60;99.90;;;;;;5055154;28;20168;-70
2021/07/16 15:25:41;;;;;;;764.20;718.47;;;18.70;99.90;;;;;;5056209;28;20165;-70
2021/07/16 15:28:07;;;;;;;802.35;754.95;;;18.80;99.90;;;;;;5056225;28;20652;-70
2021/07/16 15:30:33;;;;;;;858.33;806.45;;;18.80;99.90;;;;;;5055974;28;20251;-70
2021/07/16 15:32:58;;;;;;;846.42;794.58;;;18.80;99.90;;;;;;5056095;28;20324;-70
2021/07/16 15:35:24;;;;;;;879.83;825.22;;;18.70;99.90;;;;;;5056077;28;20164;-70
2021/07/16 15:37:50;;;;;;;949.97;887.60;;;18.70;99.90;;;;;;5055977;28;20173;-70
2021/07/16 15:40:15;;;;;;;952.28;887.85;;;18.50;99.90;;;;;;5055979;28;20204;-70
2021/07/16 15:42:42;;;;;;;962.38;896.95;;;18.40;99.90;;;;;;5055961;28;20169;-70
2021/07/16 15:45:09;;;;;;;997.47;928.28;;;18.30;99.90;;;;;;5055944;28;20168;-70
2021/07/16 15:47:35;;;;;;;978.08;910.55;;;18.30;99.90;;;;;;5055645;28;20168;-73
2021/07/16 15:50:03;;;;;;;975.78;909.10;;;18.20;99.90;;;;;;5055646;28;20175;-73
2021/07/16 15:52:29;;;;;;;972.97;906.22;;;18.10;99.90;;;;;;5055699;28;20175;-73
2021/07/16 15:54:57;;;;;;;932.42;869.72;;;18.10;99.90;;;;;;5055654;28;20173;-73
2021/07/16 15:57:22;;;;;;;939.03;875.55;;;18.10;99.90;;;;;;5055555;28;20642;-70
2021/07/16 15:59:48;;;;;;;929.95;867.95;;;18.10;99.90;;;;;;5055492;28;20215;-70
2021/07/16 16:02:14;;;;;;;939.25;876.10;;;18.20;99.90;;;;;;5055579;28;20165;-70
2021/07/16 16:04:39;;;;;;;907.40;847.97;;;18.20;99.90;;;;;;5055514;28;20176;-70
2021/07/16 16:07:05;;;;;;;898.75;840.38;;;18.30;99.90;;;;;;5055304;28;20226;-70
2021/07/16 16:09:30;;;;;;;939.20;876.00;;;18.40;99.90;;;;;;5055469;28;20210;-70
2021/07/16 16:11:56;;;;;;;904.20;845.17;;;18.30;99.90;;;;;;5054104;28;20176;-70
2021/07/16 16:14:22;;;;;;;890.08;831.97;;;18.30;99.90;;;;;;5055249;28;20169;-70
2021/07/16 16:16:47;;;;;;;933.40;871.85;;;18.30;99.90;;;;;;5055128;28;20172;-70
2021/07/16 16:19:13;;;;;;;916.47;856.03;;;18.30;99.90;;;;;;5054883;28;20205;-70
2021/07/16 16:21:39;;;;;;;939.22;876.63;;;18.30;99.90;;;;;;5055210;28;20165;-70
2021/07/16 16:24:04;;;;;;;911.85;852.17;;;18.20;99.90;;;;;;5054979;28;20260;-70
2021/07/16 16:26:30;;;;;;;902.70;843.33;;;18.20;99.90;;;;;;5054954;28;20184;-70
2021/07/16 16:28:56;;;;;;;923.03;862.30;;;18.20;99.90;;;;;;5055068;28;20165;-71
2021/07/16 16:31:24;;;;;;;941.65;878.88;;;18.10;99.90;;;;;;5055000;28;20181;-71
2021/07/16 16:33:51;;;;;;;928.30;865.45;;;18.00;99.90;;;;;;5054997;28;20172;-71
2021/07/16 16:36:16;;;;;;;895.58;836.38;;;18.00;99.90;;;;;;5054903;28;20173;-71
2021/07/16 16:57:45;;;;;;;743.92;696.88;;;20.10;99.90;;;;;;5090442;27;20574;-71
2021/07/16 17:00:14;;;;;;;810.67;757.63;;;18.00;99.90;;;;;;5090378;28;20262;-71
2021/07/16 17:02:40;;;;;;;847.28;791.72;;;18.00;99.90;;;;;;5090429;28;20671;-72
2021/07/16 17:05:06;;;;;;;877.63;819.47;;;18.00;99.90;;;;;;5089467;28;20207;-72
2021/07/16 17:07:32;;;;;;;858.35;802.03;;;18.00;99.90;;;;;;5090680;28;20690;-72
2021/07/16 17:09:58;;;;;;;874.03;817.08;;;18.00;99.90;;;;;;5089232;28;20183;-71
2021/07/16 17:12:23;;;;;;;898.05;838.33;;;18.00;99.90;;;;;;5090563;28;20164;-71
2021/07/16 17:14:49;;;;;;;884.30;825.67;;;17.90;99.90;;;;;;5090031;28;20163;-72
2021/07/16 17:17:14;;;;;;;882.03;824.10;;;18.00;99.90;;;;;;5090074;28;20201;-71
2021/07/16 17:39:21;;;;;;;715.58;670.35;;;18.60;99.90;;;;;;5131753;27;21081;-71
2021/07/16 17:41:47;;;;;;;802.13;750.75;;;17.80;99.90;;;;;;5131643;28;20170;-71
2021/07/16 17:44:13;;;;;;;817.53;764.10;;;17.90;99.90;;;;;;5131638;28;20166;-71
2021/07/16 17:46:39;;;;;;;849.45;793.17;;;17.90;99.90;;;;;;5131481;28;20170;-72
2021/07/16 17:49:05;;;;;;;830.85;777.15;;;17.80;99.90;;;;;;5131467;28;20171;-72
2021/07/16 17:51:31;;;;;;;838.85;784.50;;;17.90;99.90;;;;;;5131388;28;20167;-72
2021/07/16 17:53:57;;;;;;;824.95;771.47;;;17.80;99.90;;;;;;5131370;28;20170;-72
